Kufstein, Austria
Current Conditions -  °F | °C
As of 8:50 PM on Thursday 30 Oct 2014 (Local Time) from LOWS Reporting Station
Broken Clouds Broken Clouds  
Wind Chill: 48°   Ceiling: 4500
Heat Index: 48°   Visibility: 6mi
Dew Point: 45°   Wind: 3mph
Humidity: 87%   Direction: 160°SSE
Pressure: 30.33"   Gusts: NA
Location:  47.62°N, 12.19°E
Report Text: LOWS 301850Z 16003KT 9999 FEW037 BKN045 09/07 Q1027 NOSIG
Loading
Personal Weather Stations






























Interactive Weather Map
Tropical Storm Tracking
New forecast layout! Learn more

10-Day Weather Forecast

Advertisements
Track Severe Weather on mobile